Time;durP1;ratioP1;P1;durP2;ratioP2;P2;SDS_P1;SDS_P2;PMS_P1;PMS_P2;Temp;Humidity;BMP_temperature;BMP_pressure;BME280_temperature;BME280_humidity;BME280_pressure;Samples;Min_cycle;Max_cycle;Signal;HPM_P1;HPM_P2
2020/12/21 00:02:03;;;;;;;19.57;13.83;;;6.90;99.90;;;;;;5050261;28;20285;-79
2020/12/21 00:04:31;;;;;;;17.23;13.73;;;6.80;99.90;;;;;;5050708;28;20707;-79
2020/12/21 00:06:59;;;;;;;22.70;13.37;;;6.80;99.90;;;;;;5048583;28;20243;-79
2020/12/21 00:09:27;;;;;;;20.80;13.13;;;6.80;99.90;;;;;;5051060;28;20240;-79
2020/12/21 00:11:54;;;;;;;20.53;13.30;;;6.80;99.90;;;;;;5051193;28;20228;-79
2020/12/21 00:14:21;;;;;;;19.87;12.90;;;6.70;99.90;;;;;;5052107;28;20324;-79
2020/12/21 00:16:52;;;;;;;18.13;12.93;;;6.70;99.90;;;;;;5049526;28;20632;-79
2020/12/21 00:19:20;;;;;;;19.50;13.40;;;6.70;99.90;;;;;;5049189;28;20236;-79
2020/12/21 00:21:51;;;;;;;19.47;13.80;;;6.60;99.90;;;;;;5050226;28;20259;-79
2020/12/21 00:24:18;;;;;;;15.37;11.97;;;6.60;99.90;;;;;;5050068;28;20259;-79
2020/12/21 00:26:48;;;;;;;19.53;13.00;;;6.60;99.90;;;;;;5050389;28;20247;-78
2020/12/21 00:29:16;;;;;;;18.60;12.60;;;6.60;99.90;;;;;;5049079;28;20243;-78
2020/12/21 00:31:45;;;;;;;22.87;13.63;;;6.60;99.90;;;;;;5050754;28;20739;-79
2020/12/21 00:34:15;;;;;;;16.40;12.03;;;6.50;99.90;;;;;;5051309;28;20251;-79
2020/12/21 00:36:45;;;;;;;22.90;13.90;;;6.50;99.90;;;;;;5038854;28;20259;-78
2020/12/21 00:39:13;;;;;;;18.10;12.70;;;6.50;99.90;;;;;;5029957;28;20246;-79
2020/12/21 00:41:43;;;;;;;17.70;12.97;;;6.50;99.90;;;;;;5046483;28;20228;-79
2020/12/21 00:44:10;;;;;;;18.90;12.13;;;6.50;99.90;;;;;;5040171;28;20556;-79
2020/12/21 00:46:38;;;;;;;17.67;11.97;;;6.50;99.90;;;;;;5030119;28;20305;-79
2020/12/21 00:49:07;;;;;;;17.97;12.10;;;6.40;99.90;;;;;;5042881;28;20262;-79
2020/12/21 00:51:36;;;;;;;15.53;11.43;;;6.40;99.90;;;;;;5049128;28;20235;-78
2020/12/21 00:54:05;;;;;;;17.27;12.07;;;6.40;99.90;;;;;;5049822;28;20242;-79
2020/12/21 00:56:34;;;;;;;18.70;11.87;;;6.40;99.90;;;;;;5050500;28;20236;-80
2020/12/21 00:59:01;;;;;;;17.23;11.93;;;6.40;99.90;;;;;;5051043;28;20260;-79
2020/12/21 01:01:30;;;;;;;18.60;12.13;;;6.40;99.90;;;;;;5053511;28;20297;-79
2020/12/21 01:04:01;;;;;;;17.37;11.03;;;6.40;99.90;;;;;;5050799;28;20772;-79
2020/12/21 01:06:30;;;;;;;18.93;11.77;;;6.40;99.90;;;;;;5050667;28;20232;-79
2020/12/21 01:08:59;;;;;;;16.23;11.20;;;6.40;99.90;;;;;;5050894;28;20493;-79
2020/12/21 01:11:29;;;;;;;21.93;12.40;;;6.40;99.90;;;;;;5031572;28;20244;-79
2020/12/21 01:13:58;;;;;;;19.87;11.47;;;6.50;99.90;;;;;;5052365;28;20641;-79
2020/12/21 01:16:25;;;;;;;18.07;11.83;;;6.50;99.90;;;;;;5051197;28;20239;-78
2020/12/21 01:18:53;;;;;;;17.57;11.13;;;6.50;99.90;;;;;;5050700;28;20297;-78
2020/12/21 01:21:26;;;;;;;19.73;11.07;;;6.60;99.90;;;;;;5051078;28;20239;-79
2020/12/21 01:23:55;;;;;;;17.47;11.00;;;6.60;99.90;;;;;;5049794;28;21245;-78
2020/12/21 01:26:23;;;;;;;18.50;10.97;;;6.60;99.90;;;;;;5050662;28;20238;-78
2020/12/21 01:28:52;;;;;;;16.13;10.37;;;6.60;99.90;;;;;;5032594;28;20550;-79
2020/12/21 01:31:20;;;;;;;16.40;10.07;;;6.70;99.90;;;;;;5055827;28;20239;-79
2020/12/21 01:33:49;;;;;;;18.03;9.53;;;6.70;99.90;;;;;;5070063;28;20259;-79
2020/12/21 01:36:20;;;;;;;19.00;10.27;;;6.70;99.90;;;;;;5063589;28;20255;-79
2020/12/21 01:38:47;;;;;;;15.00;8.60;;;6.80;99.90;;;;;;5049961;28;20240;-78
2020/12/21 01:41:15;;;;;;;16.87;9.17;;;6.80;99.90;;;;;;5047856;28;20231;-79
2020/12/21 01:43:43;;;;;;;21.90;10.17;;;6.80;99.90;;;;;;5048402;28;20317;-79
2020/12/21 01:46:13;;;;;;;15.37;8.57;;;6.80;99.90;;;;;;5048119;28;20978;-79
2020/12/21 01:48:44;;;;;;;13.93;8.60;;;6.80;99.90;;;;;;5048002;28;20568;-79
2020/12/21 01:51:21;;;;;;;15.37;9.67;;;6.80;99.90;;;;;;5049887;28;20240;-79
2020/12/21 01:53:50;;;;;;;13.03;8.17;;;6.80;99.90;;;;;;5048059;28;20239;-79
2020/12/21 01:56:18;;;;;;;12.43;8.13;;;6.80;99.90;;;;;;5049594;28;20740;-79
2020/12/21 01:58:48;;;;;;;12.47;8.77;;;6.80;99.90;;;;;;5049576;28;20232;-79
2020/12/21 02:01:17;;;;;;;16.17;8.30;;;6.90;99.90;;;;;;5049645;28;20232;-79
2020/12/21 02:03:45;;;;;;;15.87;7.97;;;6.90;99.90;;;;;;5047967;28;20688;-79
2020/12/21 02:06:13;;;;;;;14.73;8.97;;;6.90;99.90;;;;;;5049096;28;20236;-79
2020/12/21 02:08:41;;;;;;;19.87;8.37;;;6.90;99.90;;;;;;5049193;28;20238;-79
2020/12/21 02:11:08;;;;;;;16.10;8.70;;;6.90;99.90;;;;;;5050220;28;20284;-79
2020/12/21 02:13:36;;;;;;;15.63;7.87;;;6.80;99.90;;;;;;5030544;28;20485;-79
2020/12/21 02:16:04;;;;;;;16.90;7.90;;;6.70;99.90;;;;;;5049100;28;20235;-80
2020/12/21 02:18:32;;;;;;;12.27;7.30;;;6.70;99.90;;;;;;5048806;28;20230;-79
2020/12/21 02:21:00;;;;;;;13.20;8.10;;;6.70;99.90;;;;;;5031302;28;20236;-79
2020/12/21 02:23:28;;;;;;;17.30;7.33;;;6.70;99.90;;;;;;5030840;28;20698;-79
2020/12/21 02:25:55;;;;;;;15.67;7.50;;;6.70;99.90;;;;;;5049332;28;20963;-79
2020/12/21 02:28:22;;;;;;;16.43;7.23;;;6.70;99.90;;;;;;5031247;28;20255;-79
2020/12/21 02:31:04;;;;;;;16.73;7.85;;;6.70;99.90;;;;;;2152914;28;10023724;-79
2020/12/21 02:33:32;;;;;;;12.63;7.20;;;6.70;99.90;;;;;;4004837;28;10001229;-79
2020/12/21 02:36:01;;;;;;;14.23;7.30;;;6.70;99.90;;;;;;5049229;28;20989;-79
2020/12/21 02:38:29;;;;;;;15.13;6.97;;;6.70;99.90;;;;;;5045308;28;20230;-79
2020/12/21 02:40:56;;;;;;;15.07;6.90;;;6.70;99.90;;;;;;5047131;28;20235;-79
2020/12/21 02:43:24;;;;;;;11.03;6.87;;;6.70;99.90;;;;;;5047581;28;20864;-79
2020/12/21 02:45:51;;;;;;;15.47;7.57;;;6.70;99.90;;;;;;5048446;28;20239;-79
2020/12/21 02:48:19;;;;;;;16.83;6.70;;;6.70;99.90;;;;;;5047538;28;20235;-79
2020/12/21 02:50:46;;;;;;;12.67;6.60;;;6.70;99.90;;;;;;5042853;28;20228;-79
2020/12/21 02:53:16;;;;;;;12.90;6.73;;;6.70;99.90;;;;;;5027880;28;20255;-79
2020/12/21 02:55:45;;;;;;;13.83;6.70;;;6.70;99.90;;;;;;5028329;28;20244;-78
2020/12/21 02:58:13;;;;;;;14.03;6.57;;;6.70;99.90;;;;;;5028750;28;20323;-79
2020/12/21 03:00:42;;;;;;;13.43;6.50;;;6.70;99.90;;;;;;5028226;28;20255;-79
2020/12/21 03:03:13;;;;;;;11.87;6.53;;;6.70;99.90;;;;;;5029179;28;20231;-79
2020/12/21 03:05:42;;;;;;;14.43;6.60;;;6.80;99.90;;;;;;5044000;28;20240;-79
2020/12/21 03:08:11;;;;;;;12.07;6.23;;;6.80;99.90;;;;;;5029012;28;20353;-79
2020/12/21 03:10:41;;;;;;;13.80;6.70;;;6.80;99.90;;;;;;5030483;28;20236;-79
2020/12/21 03:13:08;;;;;;;11.20;6.10;;;6.80;99.90;;;;;;5028587;28;20233;-79
2020/12/21 03:15:36;;;;;;;13.00;6.73;;;6.90;99.90;;;;;;5028870;28;20728;-79
2020/12/21 03:18:04;;;;;;;12.83;6.23;;;7.00;99.90;;;;;;5032297;28;20244;-80
2020/12/21 03:20:31;;;;;;;14.53;7.17;;;6.90;99.90;;;;;;5048926;28;20224;-79
2020/12/21 03:22:59;;;;;;;15.30;6.83;;;7.10;99.90;;;;;;5048612;28;20243;-79
2020/12/21 03:25:26;;;;;;;16.60;7.03;;;7.00;99.90;;;;;;5044372;28;20702;-79
2020/12/21 03:27:54;;;;;;;15.90;6.93;;;7.10;99.90;;;;;;5029818;28;20498;-79
2020/12/21 03:30:22;;;;;;;17.50;7.30;;;7.00;99.90;;;;;;5028689;28;20240;-79
2020/12/21 03:32:52;;;;;;;13.17;7.47;;;7.00;99.90;;;;;;5044146;28;20259;-79
2020/12/21 03:35:26;;;;;;;15.67;7.20;;;7.00;99.90;;;;;;5031628;28;20296;-79
2020/12/21 03:37:53;;;;;;;18.67;7.43;;;7.00;99.90;;;;;;5031743;28;20237;-79
2020/12/21 03:40:21;;;;;;;12.97;7.00;;;7.10;99.90;;;;;;5033052;28;20319;-79
2020/12/21 03:42:48;;;;;;;16.50;6.77;;;7.00;99.90;;;;;;5031881;28;20229;-79
2020/12/21 03:45:16;;;;;;;14.00;7.30;;;7.10;99.90;;;;;;5032214;28;20236;-79
2020/12/21 03:47:45;;;;;;;12.00;7.17;;;7.10;99.90;;;;;;5031660;28;20232;-79
2020/12/21 03:50:12;;;;;;;12.47;6.77;;;7.00;99.90;;;;;;5046040;28;20783;-79
2020/12/21 03:52:40;;;;;;;14.97;7.10;;;7.00;99.90;;;;;;5051580;28;20907;-79
2020/12/21 03:55:07;;;;;;;19.70;7.10;;;7.10;99.90;;;;;;5051825;28;20251;-79
2020/12/21 03:57:35;;;;;;;14.57;6.83;;;7.00;99.90;;;;;;5033490;28;20262;-79
2020/12/21 04:00:04;;;;;;;12.60;7.17;;;7.00;99.90;;;;;;5052002;28;20243;-79
2020/12/21 04:02:40;;;;;;;19.23;8.30;;;7.00;99.90;;;;;;5052145;28;20232;-79
2020/12/21 04:05:08;;;;;;;14.83;7.93;;;7.10;99.90;;;;;;5051984;28;20259;-79
2020/12/21 04:07:36;;;;;;;17.97;7.70;;;7.10;99.90;;;;;;5051452;28;20687;-79
2020/12/21 04:10:05;;;;;;;14.07;8.13;;;7.10;99.90;;;;;;5048941;28;20248;-79
2020/12/21 04:12:34;;;;;;;16.90;7.87;;;7.10;99.90;;;;;;5044068;28;20255;-79
2020/12/21 04:15:01;;;;;;;16.70;7.87;;;7.10;99.90;;;;;;5051622;28;20255;-79
2020/12/21 04:17:29;;;;;;;13.97;7.90;;;7.10;99.90;;;;;;5051133;28;20232;-79
2020/12/21 04:19:58;;;;;;;11.67;7.13;;;7.10;99.90;;;;;;5051324;28;20232;-79
2020/12/21 04:22:25;;;;;;;15.30;8.17;;;7.00;99.90;;;;;;5051354;28;20946;-79
2020/12/21 04:24:53;;;;;;;13.50;8.07;;;7.00;99.90;;;;;;5051197;28;20266;-79
2020/12/21 04:27:20;;;;;;;20.27;8.80;;;7.00;99.90;;;;;;5051745;28;20259;-79
2020/12/21 04:29:48;;;;;;;13.43;7.47;;;7.10;99.90;;;;;;5051360;28;20235;-79
2020/12/21 04:32:15;;;;;;;19.38;9.77;;;7.10;99.90;;;;;;5046373;28;20423;-78
2020/12/21 04:34:43;;;;;;;17.93;8.63;;;7.10;99.90;;;;;;5050196;28;20263;-79
2020/12/21 04:37:11;;;;;;;19.37;8.40;;;7.10;99.90;;;;;;5048792;28;20228;-79
2020/12/21 04:39:39;;;;;;;19.77;8.67;;;7.10;99.90;;;;;;5050539;28;20322;-79
2020/12/21 04:42:07;;;;;;;15.03;8.20;;;7.10;99.90;;;;;;5050575;28;20236;-79
2020/12/21 04:44:34;;;;;;;16.77;8.30;;;7.10;99.90;;;;;;5050303;28;20235;-79
2020/12/21 04:47:02;;;;;;;19.47;9.37;;;7.10;99.90;;;;;;5047926;28;20239;-80
2020/12/21 04:49:30;;;;;;;15.23;8.27;;;7.10;99.90;;;;;;5050354;28;20228;-79
2020/12/21 04:51:58;;;;;;;16.87;8.73;;;7.10;99.90;;;;;;5050380;28;20275;-79
2020/12/21 04:54:26;;;;;;;15.37;8.90;;;7.10;99.90;;;;;;5050311;28;20236;-79
2020/12/21 04:56:59;;;;;;;14.47;9.20;;;7.10;99.90;;;;;;5050014;28;20289;-79
2020/12/21 04:59:27;;;;;;;15.90;9.07;;;7.10;99.90;;;;;;5048882;28;20232;-79
2020/12/21 05:01:55;;;;;;;18.97;9.80;;;7.10;99.90;;;;;;5049085;28;20321;-79
2020/12/21 05:04:23;;;;;;;18.77;9.57;;;7.10;99.90;;;;;;5055926;28;20236;-79
2020/12/21 05:06:51;;;;;;;15.17;9.53;;;7.10;99.90;;;;;;5049937;28;20266;-78
2020/12/21 05:09:22;;;;;;;19.53;9.70;;;7.10;99.90;;;;;;5050004;28;20270;-79
2020/12/21 05:12:03;;;;;;;21.47;10.00;;;7.10;99.90;;;;;;5064432;28;20231;-79
2020/12/21 05:14:33;;;;;;;18.97;9.60;;;7.10;99.90;;;;;;5069308;28;20277;-79
2020/12/21 05:17:14;;;;;;;17.20;9.83;;;7.10;99.90;;;;;;5058566;28;20733;-79
2020/12/21 05:19:44;;;;;;;19.40;9.77;;;7.10;99.90;;;;;;5031748;28;20301;-79
2020/12/21 05:22:13;;;;;;;21.93;9.47;;;7.10;99.90;;;;;;5049288;28;20235;-79
2020/12/21 05:24:41;;;;;;;15.93;9.87;;;7.20;99.90;;;;;;5054002;28;20235;-79
2020/12/21 05:27:14;;;;;;;20.63;10.73;;;7.10;99.90;;;;;;5040761;28;20652;-79
2020/12/21 05:29:52;;;;;;;18.00;10.63;;;7.10;99.90;;;;;;5048838;28;20285;-79
2020/12/21 05:32:21;;;;;;;20.53;11.67;;;7.20;99.90;;;;;;5046941;28;20236;-79
2020/12/21 05:34:49;;;;;;;20.77;11.27;;;7.20;99.90;;;;;;5048875;28;20244;-79
2020/12/21 05:37:18;;;;;;;19.10;11.00;;;7.20;99.90;;;;;;5047759;28;20236;-80
2020/12/21 05:39:51;;;;;;;25.97;11.80;;;7.10;99.90;;;;;;5047326;28;20695;-79
2020/12/21 05:42:20;;;;;;;18.30;11.43;;;7.20;99.90;;;;;;5049325;28;20293;-79
2020/12/21 05:44:53;;;;;;;21.63;11.73;;;7.20;99.90;;;;;;5049570;28;20239;-79
2020/12/21 05:47:21;;;;;;;21.60;12.17;;;7.30;99.90;;;;;;5049419;28;20702;-79
2020/12/21 05:49:55;;;;;;;21.57;12.87;;;7.20;99.90;;;;;;5049578;28;20244;-80
2020/12/21 05:52:32;;;;;;;19.67;12.30;;;7.20;99.90;;;;;;5043787;28;20672;-79
2020/12/21 05:55:06;;;;;;;23.27;12.57;;;7.20;99.90;;;;;;5041517;28;20625;-79
2020/12/21 05:57:36;;;;;;;21.47;12.43;;;7.20;99.90;;;;;;5046552;28;20756;-79
2020/12/21 06:00:08;;;;;;;24.17;12.80;;;7.20;99.90;;;;;;5049136;28;20244;-79
2020/12/21 06:02:36;;;;;;;21.33;12.13;;;7.20;99.90;;;;;;5048237;28;20236;-80
2020/12/21 06:05:06;;;;;;;20.03;12.37;;;7.20;99.90;;;;;;5048346;28;20224;-79
2020/12/21 06:07:36;;;;;;;20.40;12.27;;;7.20;99.90;;;;;;5048371;28;20310;-79
2020/12/21 06:10:06;;;;;;;25.90;12.97;;;7.20;99.90;;;;;;5049368;28;20250;-79
2020/12/21 06:12:47;;;;;;;20.00;11.97;;;7.20;99.90;;;;;;5048811;28;20694;-79
2020/12/21 06:15:18;;;;;;;19.17;12.63;;;7.10;99.90;;;;;;5049042;28;20718;-79
2020/12/21 06:17:47;;;;;;;20.00;11.17;;;7.10;99.90;;;;;;5048389;28;20541;-80
2020/12/21 06:20:21;;;;;;;23.70;11.53;;;7.10;99.90;;;;;;5048984;28;20238;-78
2020/12/21 06:22:48;;;;;;;21.47;12.50;;;7.00;99.90;;;;;;5045926;28;20243;-79
2020/12/21 06:25:23;;;;;;;18.17;11.27;;;7.00;99.90;;;;;;5044551;28;20757;-79
2020/12/21 06:27:55;;;;;;;19.60;11.43;;;6.90;99.90;;;;;;5047555;28;20232;-80
2020/12/21 06:30:31;;;;;;;19.57;11.80;;;6.90;99.90;;;;;;5048048;28;20236;-83
2020/12/21 06:33:04;;;;;;;22.37;12.17;;;6.90;99.90;;;;;;5050878;28;20644;-83
2020/12/21 06:35:42;;;;;;;24.93;11.87;;;6.90;99.90;;;;;;5047448;28;20691;-79
2020/12/21 06:38:10;;;;;;;17.47;11.30;;;6.90;99.90;;;;;;5048539;28;20271;-79
2020/12/21 06:40:38;;;;;;;18.83;12.13;;;6.80;99.90;;;;;;5049072;28;20339;-79
2020/12/21 06:43:14;;;;;;;18.77;11.47;;;6.80;99.90;;;;;;5049085;28;20895;-78
2020/12/21 06:45:44;;;;;;;21.33;11.83;;;6.80;99.90;;;;;;5047610;28;20247;-79
2020/12/21 06:48:22;;;;;;;23.83;11.57;;;6.70;99.90;;;;;;5046476;28;20284;-80
2020/12/21 06:50:49;;;;;;;18.70;11.77;;;6.70;99.90;;;;;;5047153;28;20237;-78
2020/12/21 06:53:17;;;;;;;19.63;12.10;;;6.70;99.90;;;;;;5047645;28;20704;-81
2020/12/21 06:55:45;;;;;;;19.07;11.67;;;6.70;99.90;;;;;;5055454;28;20304;-79
2020/12/21 06:58:13;;;;;;;19.33;11.20;;;6.70;99.90;;;;;;5060063;28;20711;-79
2020/12/21 07:00:43;;;;;;;21.17;11.43;;;6.70;99.90;;;;;;5047337;28;20295;-81
2020/12/21 07:03:11;;;;;;;23.63;13.20;;;6.70;99.90;;;;;;5047089;28;20236;-79
2020/12/21 07:05:39;;;;;;;24.23;11.93;;;6.70;99.90;;;;;;5031681;28;20227;-80
2020/12/21 07:08:08;;;;;;;25.33;12.00;;;6.60;99.90;;;;;;5047179;28;20231;-80
2020/12/21 07:10:40;;;;;;;23.03;11.93;;;6.60;99.90;;;;;;5051728;28;20227;-79
2020/12/21 07:13:13;;;;;;;20.17;11.00;;;6.60;99.90;;;;;;5050842;28;20251;-79
2020/12/21 07:15:42;;;;;;;19.93;11.23;;;6.60;99.90;;;;;;5050146;28;20243;-79
2020/12/21 07:18:11;;;;;;;18.63;11.37;;;6.50;99.90;;;;;;5030703;28;20716;-78
2020/12/21 07:20:40;;;;;;;22.23;11.70;;;6.50;99.90;;;;;;5034071;28;20239;-79
2020/12/21 07:23:07;;;;;;;20.03;11.10;;;6.50;99.90;;;;;;5053862;28;20240;-79
2020/12/21 07:25:35;;;;;;;19.73;11.50;;;6.50;99.90;;;;;;5050484;28;20246;-79
2020/12/21 07:28:02;;;;;;;22.67;11.97;;;6.50;99.90;;;;;;5049249;28;20331;-79
2020/12/21 07:30:32;;;;;;;20.23;11.17;;;6.40;99.90;;;;;;5052638;28;20644;-79
2020/12/21 07:33:05;;;;;;;20.13;11.90;;;6.40;99.90;;;;;;5050695;28;20661;-79
2020/12/21 07:35:33;;;;;;;19.53;11.03;;;6.40;99.90;;;;;;5048911;28;20631;-79
2020/12/21 07:38:14;;;;;;;19.30;11.90;;;6.40;99.90;;;;;;5051036;28;20246;-79
2020/12/21 07:40:45;;;;;;;17.33;11.47;;;6.40;99.90;;;;;;5050669;28;20240;-79
2020/12/21 07:43:23;;;;;;;23.57;12.13;;;6.40;99.90;;;;;;5050756;28;20239;-79
2020/12/21 07:45:59;;;;;;;24.27;12.17;;;6.40;99.90;;;;;;5050455;28;20267;-79
2020/12/21 07:48:27;;;;;;;18.63;12.13;;;6.40;99.90;;;;;;5048067;28;20300;-78
2020/12/21 07:50:54;;;;;;;19.47;11.90;;;6.40;99.90;;;;;;5049491;28;20236;-79
2020/12/21 07:53:23;;;;;;;21.87;12.53;;;6.30;99.90;;;;;;5051009;28;20567;-79
2020/12/21 07:55:59;;;;;;;20.63;12.60;;;6.30;99.90;;;;;;5050490;28;20236;-79
2020/12/21 07:58:27;;;;;;;24.47;12.37;;;6.40;99.90;;;;;;5052316;28;20679;-82
2020/12/21 08:00:57;;;;;;;19.90;12.30;;;6.30;99.90;;;;;;5054910;28;20638;-81
2020/12/21 08:03:27;;;;;;;25.53;12.30;;;6.30;99.90;;;;;;5032349;28;20263;-79
2020/12/21 08:06:06;;;;;;;19.83;11.77;;;6.30;99.90;;;;;;5050153;28;20243;-78
2020/12/21 08:08:34;;;;;;;23.80;11.97;;;6.30;99.90;;;;;;5050067;28;20547;-79
2020/12/21 08:11:02;;;;;;;22.63;11.27;;;6.30;99.90;;;;;;5050836;28;20649;-79
2020/12/21 08:13:30;;;;;;;20.80;12.63;;;6.30;99.90;;;;;;5049983;28;20706;-78
2020/12/21 08:16:09;;;;;;;20.07;11.80;;;6.30;99.90;;;;;;5050501;28;20696;-79
2020/12/21 08:18:37;;;;;;;21.13;11.80;;;6.30;99.90;;;;;;5048551;28;20536;-78
2020/12/21 08:21:06;;;;;;;23.43;12.07;;;6.30;99.90;;;;;;5048712;28;20239;-78
2020/12/21 08:23:34;;;;;;;17.50;11.70;;;6.30;99.90;;;;;;5050195;28;20228;-79
2020/12/21 08:26:01;;;;;;;17.23;11.53;;;6.30;99.90;;;;;;5050109;28;20292;-78
2020/12/21 08:28:36;;;;;;;18.57;11.10;;;6.30;99.90;;;;;;5049937;28;20238;-79
2020/12/21 08:31:09;;;;;;;19.73;10.83;;;6.30;99.90;;;;;;5051275;28;20257;-78
2020/12/21 08:33:41;;;;;;;22.33;11.23;;;6.30;99.90;;;;;;5050992;28;20682;-79
2020/12/21 08:36:27;;;;;;;18.13;10.93;;;6.30;99.90;;;;;;5050288;28;20302;-79
2020/12/21 08:39:06;;;;;;;22.63;10.70;;;6.30;99.90;;;;;;5048614;28;20886;-80
2020/12/21 08:41:40;;;;;;;26.40;10.93;;;6.40;99.90;;;;;;5049878;28;20239;-78
2020/12/21 08:44:13;;;;;;;21.80;10.43;;;6.40;99.90;;;;;;5047252;28;20244;-79
2020/12/21 08:46:48;;;;;;;18.43;9.60;;;6.40;99.90;;;;;;5044933;28;20520;-79
2020/12/21 08:49:15;;;;;;;20.57;9.77;;;6.40;99.90;;;;;;5048908;28;20500;-78
2020/12/21 08:51:43;;;;;;;21.17;10.10;;;6.40;99.90;;;;;;5049394;28;20315;-78
2020/12/21 08:54:10;;;;;;;22.47;9.93;;;6.50;99.90;;;;;;5051614;28;20254;-79
2020/12/21 08:56:38;;;;;;;17.00;8.53;;;6.50;99.90;;;;;;5052444;28;21344;-78
2020/12/21 08:59:05;;;;;;;15.10;9.07;;;6.50;99.90;;;;;;5046854;28;20278;-79
2020/12/21 09:01:33;;;;;;;20.63;8.73;;;6.40;99.90;;;;;;5030992;28;20239;-79
2020/12/21 09:04:01;;;;;;;16.43;8.30;;;6.40;99.90;;;;;;5049329;28;20244;-79
2020/12/21 09:06:29;;;;;;;18.87;8.47;;;6.40;99.90;;;;;;5049480;28;20240;-78
2020/12/21 09:08:58;;;;;;;16.07;8.47;;;6.50;99.90;;;;;;5049184;28;20350;-78
2020/12/21 09:11:26;;;;;;;18.27;8.10;;;6.50;99.90;;;;;;5053952;28;20235;-79
2020/12/21 09:13:54;;;;;;;17.93;8.57;;;6.50;99.90;;;;;;5049958;28;20589;-80
2020/12/21 09:16:24;;;;;;;18.07;8.70;;;6.50;99.90;;;;;;5049162;28;20244;-79
2020/12/21 09:18:52;;;;;;;18.10;8.30;;;6.50;99.90;;;;;;5051126;28;20239;-79
2020/12/21 09:21:26;;;;;;;16.87;8.90;;;6.50;99.90;;;;;;5049505;28;20241;-79
2020/12/21 09:23:56;;;;;;;18.23;8.60;;;6.40;99.90;;;;;;5047563;28;20247;-79
2020/12/21 09:26:27;;;;;;;18.00;6.97;;;6.40;99.90;;;;;;5049078;28;20521;-79
2020/12/21 09:28:56;;;;;;;14.50;7.33;;;6.50;99.90;;;;;;5045295;28;20301;-79
2020/12/21 09:31:24;;;;;;;15.17;6.40;;;6.50;99.90;;;;;;5050520;28;20634;-78
2020/12/21 09:33:52;;;;;;;14.67;6.33;;;6.50;99.90;;;;;;5052326;28;20898;-79
2020/12/21 09:36:23;;;;;;;13.93;6.67;;;6.60;99.90;;;;;;5049327;28;20240;-79
2020/12/21 09:39:08;;;;;;;17.33;7.43;;;6.70;99.90;;;;;;5046650;28;20234;-79
2020/12/21 09:41:36;;;;;;;12.30;6.23;;;6.70;99.90;;;;;;5047698;28;20235;-79
2020/12/21 09:44:04;;;;;;;18.57;6.20;;;6.70;99.90;;;;;;5048021;28;20232;-79
2020/12/21 09:46:31;;;;;;;13.77;6.87;;;6.80;99.90;;;;;;5048409;28;20301;-79
2020/12/21 09:49:03;;;;;;;11.50;5.83;;;6.80;99.90;;;;;;5043143;28;20343;-79
2020/12/21 09:51:32;;;;;;;10.00;5.60;;;6.90;99.90;;;;;;5041780;28;20247;-79
2020/12/21 09:53:59;;;;;;;11.33;5.20;;;7.00;99.90;;;;;;5028058;28;20659;-79
2020/12/21 09:56:27;;;;;;;9.23;5.03;;;7.10;99.90;;;;;;5028345;28;20244;-80
2020/12/21 09:58:55;;;;;;;15.27;5.80;;;7.10;99.90;;;;;;5028770;28;20264;-79
2020/12/21 10:01:27;;;;;;;10.70;4.97;;;7.20;99.90;;;;;;5029303;28;20252;-79
2020/12/21 10:03:59;;;;;;;14.17;4.87;;;7.20;99.90;;;;;;5028429;28;20825;-78
2020/12/21 10:06:27;;;;;;;13.93;4.90;;;7.20;99.90;;;;;;5028000;28;20287;-79
2020/12/21 10:08:55;;;;;;;15.30;5.47;;;7.30;99.90;;;;;;5028720;28;20248;-78
2020/12/21 10:11:23;;;;;;;15.03;5.27;;;7.40;99.90;;;;;;5028852;28;20314;-78
2020/12/21 10:13:50;;;;;;;10.33;5.00;;;7.50;99.90;;;;;;5028715;28;20761;-78
2020/12/21 10:16:18;;;;;;;12.10;4.70;;;7.60;99.90;;;;;;5027395;28;20232;-80
2020/12/21 10:18:45;;;;;;;11.20;5.00;;;7.60;99.90;;;;;;5029207;28;20240;-79
2020/12/21 10:21:13;;;;;;;15.00;4.90;;;7.70;99.90;;;;;;5028570;28;20244;-79
2020/12/21 10:23:40;;;;;;;13.03;4.87;;;7.70;99.90;;;;;;5028674;28;20294;-79
2020/12/21 10:26:09;;;;;;;11.00;4.40;;;7.70;99.90;;;;;;5028220;28;20245;-80
2020/12/21 10:28:37;;;;;;;10.43;4.90;;;7.80;99.90;;;;;;5043750;28;20247;-79
2020/12/21 10:31:06;;;;;;;13.63;4.77;;;7.90;99.90;;;;;;5028413;28;20248;-79
2020/12/21 10:33:33;;;;;;;12.73;5.20;;;7.90;99.90;;;;;;5027702;28;20236;-80
2020/12/21 10:36:02;;;;;;;12.17;5.13;;;7.90;99.90;;;;;;5028073;28;20285;-80
2020/12/21 10:38:31;;;;;;;12.70;4.57;;;8.00;99.90;;;;;;5042367;28;20244;-79
2020/12/21 10:41:00;;;;;;;11.53;5.00;;;8.00;99.90;;;;;;5035912;28;20247;-80
2020/12/21 10:43:28;;;;;;;15.47;5.13;;;8.00;99.90;;;;;;5026274;28;20286;-79
2020/12/21 10:45:56;;;;;;;10.53;5.10;;;8.00;99.90;;;;;;5032592;28;20256;-79
2020/12/21 10:48:23;;;;;;;12.30;4.30;;;8.10;99.90;;;;;;5032033;28;20240;-79
2020/12/21 10:50:54;;;;;;;10.87;4.73;;;8.20;99.90;;;;;;5051018;28;20231;-80
2020/12/21 10:53:22;;;;;;;12.27;3.80;;;8.20;99.90;;;;;;5050998;28;20239;-80
2020/12/21 10:55:50;;;;;;;7.13;3.30;;;8.40;99.90;;;;;;5050028;28;20247;-79
2020/12/21 10:58:17;;;;;;;10.83;4.07;;;8.40;99.90;;;;;;5049625;28;20235;-79
2020/12/21 11:00:46;;;;;;;9.13;3.93;;;8.50;99.90;;;;;;5050066;28;20278;-79
2020/12/21 11:03:14;;;;;;;12.13;3.97;;;8.40;99.90;;;;;;5052897;28;20297;-79
2020/12/21 11:05:42;;;;;;;9.50;3.40;;;8.50;99.90;;;;;;5048703;28;20289;-79
2020/12/21 11:08:09;;;;;;;8.40;3.63;;;8.50;99.90;;;;;;5048919;28;20690;-80
2020/12/21 11:10:41;;;;;;;9.90;3.50;;;8.60;99.90;;;;;;5048827;28;20302;-84
2020/12/21 11:13:08;;;;;;;7.73;3.17;;;8.70;99.90;;;;;;5051226;28;20235;-84
2020/12/21 11:15:36;;;;;;;11.13;3.40;;;8.70;99.90;;;;;;5049307;28;20243;-82
2020/12/21 11:18:05;;;;;;;14.73;4.90;;;8.80;99.90;;;;;;5047981;28;20239;-83
2020/12/21 11:20:32;;;;;;;9.87;3.53;;;8.90;99.90;;;;;;5049289;28;20239;-82
2020/12/21 11:23:01;;;;;;;8.57;3.53;;;9.10;99.90;;;;;;5049502;28;20278;-83
2020/12/21 11:25:29;;;;;;;11.97;3.33;;;9.10;99.90;;;;;;5049062;28;20242;-83
2020/12/21 11:27:59;;;;;;;9.67;3.40;;;9.20;99.90;;;;;;5050211;28;20247;-84
2020/12/21 11:30:27;;;;;;;9.33;3.27;;;9.10;99.90;;;;;;5049442;28;20293;-81
2020/12/21 11:32:54;;;;;;;6.80;3.10;;;9.30;99.90;;;;;;5034843;28;20297;-81
2020/12/21 11:35:23;;;;;;;12.03;3.57;;;9.20;99.90;;;;;;5052108;28;20641;-80
2020/12/21 11:37:51;;;;;;;8.70;3.10;;;9.20;99.90;;;;;;5048828;28;20243;-81
2020/12/21 11:40:25;;;;;;;8.37;3.20;;;9.30;99.90;;;;;;5048400;28;20235;-81
2020/12/21 11:42:52;;;;;;;10.63;3.17;;;9.30;99.90;;;;;;5049323;28;20248;-81
2020/12/21 11:45:20;;;;;;;7.00;2.70;;;9.30;99.90;;;;;;5049527;28;20931;-82
2020/12/21 11:47:47;;;;;;;10.97;3.50;;;9.20;99.90;;;;;;5048006;28;20333;-80
2020/12/21 11:50:15;;;;;;;9.70;3.23;;;9.20;99.90;;;;;;5027543;28;617550;-81
2020/12/21 11:52:43;;;;;;;7.53;3.00;;;9.20;99.90;;;;;;5049279;28;20274;-81
2020/12/21 11:55:11;;;;;;;9.73;3.33;;;9.30;99.90;;;;;;5048571;28;21091;-81
2020/12/21 11:57:38;;;;;;;7.63;3.03;;;9.30;99.90;;;;;;5049632;28;20297;-82
2020/12/21 12:00:06;;;;;;;7.43;2.80;;;9.40;99.90;;;;;;5049876;28;20244;-80
2020/12/21 12:02:34;;;;;;;6.13;2.47;;;9.40;99.90;;;;;;5048703;28;20242;-81
2020/12/21 12:05:01;;;;;;;9.80;3.10;;;9.20;99.90;;;;;;5031345;28;20240;-81
2020/12/21 12:07:31;;;;;;;6.33;2.80;;;9.20;99.90;;;;;;5048762;28;20644;-81
2020/12/21 12:09:59;;;;;;;7.57;3.20;;;9.20;99.90;;;;;;5048872;28;20786;-81
2020/12/21 12:12:27;;;;;;;7.40;2.80;;;9.20;99.90;;;;;;5048018;28;20244;-81
2020/12/21 12:14:55;;;;;;;5.60;3.10;;;9.30;99.90;;;;;;5048678;28;20228;-81
2020/12/21 12:17:22;;;;;;;7.80;3.27;;;9.20;99.90;;;;;;5048836;28;20256;-82
2020/12/21 12:19:50;;;;;;;11.33;3.00;;;9.10;99.90;;;;;;5048757;28;20240;-81
2020/12/21 12:22:18;;;;;;;8.50;3.30;;;9.20;99.90;;;;;;5048917;28;21022;-81
2020/12/21 12:24:45;;;;;;;9.57;2.97;;;9.20;99.90;;;;;;5048544;28;20253;-81
2020/12/21 12:27:14;;;;;;;9.73;3.23;;;9.20;99.90;;;;;;5048093;28;20262;-81
2020/12/21 12:29:41;;;;;;;8.87;3.67;;;9.10;99.90;;;;;;5049990;28;20240;-81
2020/12/21 12:32:10;;;;;;;7.23;3.40;;;9.00;99.90;;;;;;5049173;28;20243;-81
2020/12/21 12:34:39;;;;;;;8.07;3.30;;;9.00;99.90;;;;;;5047777;28;20235;-80
2020/12/21 12:37:06;;;;;;;6.53;2.83;;;8.90;99.90;;;;;;5050132;28;20288;-82
2020/12/21 12:39:34;;;;;;;6.17;3.00;;;8.90;99.90;;;;;;5050446;28;20243;-82
2020/12/21 12:42:01;;;;;;;8.70;2.90;;;8.80;99.90;;;;;;5051011;28;20255;-80
2020/12/21 12:44:30;;;;;;;12.00;3.50;;;8.80;99.90;;;;;;5047974;28;20710;-81
2020/12/21 12:46:58;;;;;;;8.93;3.50;;;8.70;99.90;;;;;;5042003;28;21044;-80
2020/12/21 12:49:25;;;;;;;10.20;3.17;;;8.70;99.90;;;;;;5048190;28;20293;-80
2020/12/21 12:51:55;;;;;;;9.63;3.27;;;8.70;99.90;;;;;;5050237;28;20255;-80
2020/12/21 12:54:23;;;;;;;7.73;3.10;;;8.60;99.90;;;;;;5049545;28;20240;-80